sensor_id;sensor_type;location;lat;lon;timestamp;P1;durP1;ratioP1;P2;durP2;ratioP2
67456;SDS011;54319;52.038;4.640;2022-12-18T00:02:01;81.22;;;26.45;;
67456;SDS011;54319;52.038;4.640;2022-12-18T00:04:28;62.63;;;23.58;;
67456;SDS011;54319;52.038;4.640;2022-12-18T00:06:57;61.28;;;22.75;;
67456;SDS011;54319;52.038;4.640;2022-12-18T00:09:23;63.35;;;23.50;;
67456;SDS011;54319;52.038;4.640;2022-12-18T00:11:51;72.15;;;24.95;;
67456;SDS011;54319;52.038;4.640;2022-12-18T00:14:18;62.55;;;22.75;;
67456;SDS011;54319;52.038;4.640;2022-12-18T00:16:46;83.28;;;24.80;;
67456;SDS011;54319;52.038;4.640;2022-12-18T00:19:13;85.47;;;27.13;;
67456;SDS011;54319;52.038;4.640;2022-12-18T00:21:41;69.45;;;26.05;;
67456;SDS011;54319;52.038;4.640;2022-12-18T00:24:11;74.28;;;25.20;;
67456;SDS011;54319;52.038;4.640;2022-12-18T00:26:38;77.88;;;26.23;;
67456;SDS011;54319;52.038;4.640;2022-12-18T00:29:07;85.78;;;24.88;;
67456;SDS011;54319;52.038;4.640;2022-12-18T00:31:36;65.10;;;23.48;;
67456;SDS011;54319;52.038;4.640;2022-12-18T00:36:31;58.80;;;22.50;;
67456;SDS011;54319;52.038;4.640;2022-12-18T00:38:59;51.95;;;21.63;;
67456;SDS011;54319;52.038;4.640;2022-12-18T00:41:30;53.47;;;21.55;;
67456;SDS011;54319;52.038;4.640;2022-12-18T00:44:20;53.40;;;21.20;;
67456;SDS011;54319;52.038;4.640;2022-12-18T00:46:47;57.92;;;22.90;;
67456;SDS011;54319;52.038;4.640;2022-12-18T00:49:15;68.03;;;24.38;;
67456;SDS011;54319;52.038;4.640;2022-12-18T00:51:42;81.57;;;23.65;;
67456;SDS011;54319;52.038;4.640;2022-12-18T00:54:09;67.80;;;21.42;;
67456;SDS011;54319;52.038;4.640;2022-12-18T00:56:38;80.07;;;24.75;;
67456;SDS011;54319;52.038;4.640;2022-12-18T00:59:05;76.20;;;24.35;;
67456;SDS011;54319;52.038;4.640;2022-12-18T01:01:32;82.80;;;21.03;;
67456;SDS011;54319;52.038;4.640;2022-12-18T01:04:00;66.90;;;20.38;;
67456;SDS011;54319;52.038;4.640;2022-12-18T01:06:28;56.13;;;20.23;;
67456;SDS011;54319;52.038;4.640;2022-12-18T01:08:57;48.13;;;20.27;;
67456;SDS011;54319;52.038;4.640;2022-12-18T01:13:52;66.13;;;19.92;;
67456;SDS011;54319;52.038;4.640;2022-12-18T01:16:20;55.95;;;20.48;;
67456;SDS011;54319;52.038;4.640;2022-12-18T01:18:50;49.13;;;19.85;;
67456;SDS011;54319;52.038;4.640;2022-12-18T01:21:17;48.90;;;20.45;;
67456;SDS011;54319;52.038;4.640;2022-12-18T01:23:44;55.38;;;21.52;;
67456;SDS011;54319;52.038;4.640;2022-12-18T01:26:12;62.17;;;23.48;;
67456;SDS011;54319;52.038;4.640;2022-12-18T01:28:42;67.35;;;23.17;;
67456;SDS011;54319;52.038;4.640;2022-12-18T01:31:18;69.18;;;23.52;;
67456;SDS011;54319;52.038;4.640;2022-12-18T01:33:48;61.83;;;23.40;;
67456;SDS011;54319;52.038;4.640;2022-12-18T01:36:16;53.92;;;20.92;;
67456;SDS011;54319;52.038;4.640;2022-12-18T01:38:45;59.97;;;22.98;;
67456;SDS011;54319;52.038;4.640;2022-12-18T01:43:44;57.83;;;19.88;;
67456;SDS011;54319;52.038;4.640;2022-12-18T01:46:13;46.15;;;19.58;;
67456;SDS011;54319;52.038;4.640;2022-12-18T01:48:42;55.67;;;22.48;;
67456;SDS011;54319;52.038;4.640;2022-12-18T01:51:10;53.78;;;21.30;;
67456;SDS011;54319;52.038;4.640;2022-12-18T01:56:06;55.60;;;18.17;;
67456;SDS011;54319;52.038;4.640;2022-12-18T01:58:37;56.88;;;20.83;;
67456;SDS011;54319;52.038;4.640;2022-12-18T02:01:09;48.58;;;19.83;;
67456;SDS011;54319;52.038;4.640;2022-12-18T02:03:36;58.22;;;20.13;;
67456;SDS011;54319;52.038;4.640;2022-12-18T02:06:07;57.63;;;20.95;;
67456;SDS011;54319;52.038;4.640;2022-12-18T02:08:43;46.22;;;19.70;;
67456;SDS011;54319;52.038;4.640;2022-12-18T02:11:20;43.10;;;19.43;;
67456;SDS011;54319;52.038;4.640;2022-12-18T02:13:59;59.25;;;21.33;;
67456;SDS011;54319;52.038;4.640;2022-12-18T02:16:34;76.93;;;21.42;;
67456;SDS011;54319;52.038;4.640;2022-12-18T02:19:15;93.88;;;20.27;;
67456;SDS011;54319;52.038;4.640;2022-12-18T02:21:51;47.75;;;20.42;;
67456;SDS011;54319;52.038;4.640;2022-12-18T02:24:27;60.75;;;21.33;;
67456;SDS011;54319;52.038;4.640;2022-12-18T02:27:04;43.45;;;17.85;;
67456;SDS011;54319;52.038;4.640;2022-12-18T02:29:33;61.72;;;22.10;;
67456;SDS011;54319;52.038;4.640;2022-12-18T02:32:05;79.95;;;17.90;;
67456;SDS011;54319;52.038;4.640;2022-12-18T02:34:37;52.85;;;21.13;;
67456;SDS011;54319;52.038;4.640;2022-12-18T02:37:07;59.03;;;19.05;;
67456;SDS011;54319;52.038;4.640;2022-12-18T02:39:38;48.00;;;18.98;;
67456;SDS011;54319;52.038;4.640;2022-12-18T02:42:10;54.13;;;22.88;;
67456;SDS011;54319;52.038;4.640;2022-12-18T02:44:41;56.22;;;21.10;;
67456;SDS011;54319;52.038;4.640;2022-12-18T02:47:09;51.22;;;19.92;;
67456;SDS011;54319;52.038;4.640;2022-12-18T02:49:40;71.57;;;21.30;;
67456;SDS011;54319;52.038;4.640;2022-12-18T02:52:23;57.17;;;19.15;;
67456;SDS011;54319;52.038;4.640;2022-12-18T02:55:00;54.38;;;19.88;;
67456;SDS011;54319;52.038;4.640;2022-12-18T02:57:42;45.08;;;17.33;;
67456;SDS011;54319;52.038;4.640;2022-12-18T03:00:16;43.50;;;19.27;;
67456;SDS011;54319;52.038;4.640;2022-12-18T03:02:46;50.30;;;18.95;;
67456;SDS011;54319;52.038;4.640;2022-12-18T03:05:19;43.50;;;19.55;;
67456;SDS011;54319;52.038;4.640;2022-12-18T03:07:50;53.50;;;21.52;;
67456;SDS011;54319;52.038;4.640;2022-12-18T03:10:25;40.30;;;17.55;;
67456;SDS011;54319;52.038;4.640;2022-12-18T03:12:59;41.40;;;18.98;;
67456;SDS011;54319;52.038;4.640;2022-12-18T03:15:29;44.47;;;18.58;;
67456;SDS011;54319;52.038;4.640;2022-12-18T03:18:02;58.90;;;22.42;;
67456;SDS011;54319;52.038;4.640;2022-12-18T03:20:33;52.40;;;19.63;;
67456;SDS011;54319;52.038;4.640;2022-12-18T03:23:04;56.20;;;22.15;;
67456;SDS011;54319;52.038;4.640;2022-12-18T03:25:35;52.13;;;21.83;;
67456;SDS011;54319;52.038;4.640;2022-12-18T03:28:08;53.00;;;21.60;;
67456;SDS011;54319;52.038;4.640;2022-12-18T03:30:40;52.33;;;22.10;;
67456;SDS011;54319;52.038;4.640;2022-12-18T03:33:09;48.67;;;20.63;;
67456;SDS011;54319;52.038;4.640;2022-12-18T03:35:40;57.58;;;20.50;;
67456;SDS011;54319;52.038;4.640;2022-12-18T03:38:09;54.58;;;21.05;;
67456;SDS011;54319;52.038;4.640;2022-12-18T03:40:40;50.33;;;20.23;;
67456;SDS011;54319;52.038;4.640;2022-12-18T03:43:18;39.95;;;16.98;;
67456;SDS011;54319;52.038;4.640;2022-12-18T03:45:57;36.40;;;18.27;;
67456;SDS011;54319;52.038;4.640;2022-12-18T03:48:32;45.15;;;19.05;;
67456;SDS011;54319;52.038;4.640;2022-12-18T03:51:05;34.42;;;17.92;;
67456;SDS011;54319;52.038;4.640;2022-12-18T03:53:36;39.42;;;17.63;;
67456;SDS011;54319;52.038;4.640;2022-12-18T03:56:08;38.35;;;16.38;;
67456;SDS011;54319;52.038;4.640;2022-12-18T03:58:39;40.75;;;17.90;;
67456;SDS011;54319;52.038;4.640;2022-12-18T04:01:07;44.97;;;19.45;;
67456;SDS011;54319;52.038;4.640;2022-12-18T04:03:36;36.08;;;19.42;;
67456;SDS011;54319;52.038;4.640;2022-12-18T04:06:04;36.15;;;17.05;;
67456;SDS011;54319;52.038;4.640;2022-12-18T04:08:33;31.52;;;16.52;;
67456;SDS011;54319;52.038;4.640;2022-12-18T04:11:00;42.28;;;17.85;;
67456;SDS011;54319;52.038;4.640;2022-12-18T04:15:57;27.02;;;13.90;;
67456;SDS011;54319;52.038;4.640;2022-12-18T04:18:25;33.63;;;16.67;;
67456;SDS011;54319;52.038;4.640;2022-12-18T04:20:51;29.48;;;16.15;;
67456;SDS011;54319;52.038;4.640;2022-12-18T04:23:18;35.38;;;16.65;;
67456;SDS011;54319;52.038;4.640;2022-12-18T04:25:45;35.50;;;17.55;;
67456;SDS011;54319;52.038;4.640;2022-12-18T04:28:13;29.50;;;16.48;;
67456;SDS011;54319;52.038;4.640;2022-12-18T04:30:41;33.92;;;17.77;;
67456;SDS011;54319;52.038;4.640;2022-12-18T04:33:09;38.90;;;18.05;;
67456;SDS011;54319;52.038;4.640;2022-12-18T04:35:37;43.00;;;17.92;;
67456;SDS011;54319;52.038;4.640;2022-12-18T04:40:34;37.47;;;16.95;;
67456;SDS011;54319;52.038;4.640;2022-12-18T04:43:02;37.42;;;16.67;;
67456;SDS011;54319;52.038;4.640;2022-12-18T04:45:29;37.50;;;17.58;;
67456;SDS011;54319;52.038;4.640;2022-12-18T04:47:56;39.20;;;16.73;;
67456;SDS011;54319;52.038;4.640;2022-12-18T04:50:25;34.33;;;17.00;;
67456;SDS011;54319;52.038;4.640;2022-12-18T04:52:52;39.05;;;17.77;;
67456;SDS011;54319;52.038;4.640;2022-12-18T04:55:19;35.67;;;17.58;;
67456;SDS011;54319;52.038;4.640;2022-12-18T04:57:46;31.45;;;16.17;;
67456;SDS011;54319;52.038;4.640;2022-12-18T05:00:13;38.00;;;17.88;;
67456;SDS011;54319;52.038;4.640;2022-12-18T05:05:07;31.23;;;17.10;;
67456;SDS011;54319;52.038;4.640;2022-12-18T05:07:36;31.10;;;16.83;;
67456;SDS011;54319;52.038;4.640;2022-12-18T05:10:03;44.55;;;18.75;;
67456;SDS011;54319;52.038;4.640;2022-12-18T05:12:31;36.88;;;17.73;;
67456;SDS011;54319;52.038;4.640;2022-12-18T05:14:58;34.17;;;17.42;;
67456;SDS011;54319;52.038;4.640;2022-12-18T05:17:25;36.83;;;18.08;;
67456;SDS011;54319;52.038;4.640;2022-12-18T05:19:53;44.93;;;18.93;;
67456;SDS011;54319;52.038;4.640;2022-12-18T05:22:20;44.70;;;19.42;;
67456;SDS011;54319;52.038;4.640;2022-12-18T05:24:48;45.63;;;20.88;;
67456;SDS011;54319;52.038;4.640;2022-12-18T05:27:15;39.42;;;20.05;;
67456;SDS011;54319;52.038;4.640;2022-12-18T05:29:44;39.92;;;22.35;;
67456;SDS011;54319;52.038;4.640;2022-12-18T05:32:11;55.17;;;23.23;;
67456;SDS011;54319;52.038;4.640;2022-12-18T05:34:37;35.50;;;18.17;;
67456;SDS011;54319;52.038;4.640;2022-12-18T05:37:04;42.50;;;21.70;;
67456;SDS011;54319;52.038;4.640;2022-12-18T05:39:31;30.80;;;17.30;;
67456;SDS011;54319;52.038;4.640;2022-12-18T05:41:59;43.03;;;20.40;;
67456;SDS011;54319;52.038;4.640;2022-12-18T05:44:26;36.28;;;19.08;;
67456;SDS011;54319;52.038;4.640;2022-12-18T05:46:54;41.60;;;19.52;;
67456;SDS011;54319;52.038;4.640;2022-12-18T05:49:20;42.75;;;19.75;;
67456;SDS011;54319;52.038;4.640;2022-12-18T05:51:47;38.78;;;19.98;;
67456;SDS011;54319;52.038;4.640;2022-12-18T05:54:14;44.05;;;18.63;;
67456;SDS011;54319;52.038;4.640;2022-12-18T05:56:41;40.03;;;18.30;;
67456;SDS011;54319;52.038;4.640;2022-12-18T05:59:09;37.28;;;18.08;;
67456;SDS011;54319;52.038;4.640;2022-12-18T06:01:36;34.83;;;17.05;;
67456;SDS011;54319;52.038;4.640;2022-12-18T06:04:03;40.67;;;17.17;;
67456;SDS011;54319;52.038;4.640;2022-12-18T06:06:30;41.88;;;17.30;;
67456;SDS011;54319;52.038;4.640;2022-12-18T06:08:57;36.88;;;17.70;;
67456;SDS011;54319;52.038;4.640;2022-12-18T06:11:26;42.92;;;18.60;;
67456;SDS011;54319;52.038;4.640;2022-12-18T06:13:55;30.95;;;15.48;;
67456;SDS011;54319;52.038;4.640;2022-12-18T06:16:24;31.25;;;16.63;;
67456;SDS011;54319;52.038;4.640;2022-12-18T06:18:50;43.95;;;16.05;;
67456;SDS011;54319;52.038;4.640;2022-12-18T06:21:17;34.13;;;18.10;;
67456;SDS011;54319;52.038;4.640;2022-12-18T06:23:44;35.37;;;16.13;;
67456;SDS011;54319;52.038;4.640;2022-12-18T06:26:11;29.30;;;16.55;;
67456;SDS011;54319;52.038;4.640;2022-12-18T06:28:39;33.47;;;15.98;;
67456;SDS011;54319;52.038;4.640;2022-12-18T06:31:06;33.15;;;14.77;;
67456;SDS011;54319;52.038;4.640;2022-12-18T06:33:35;25.90;;;13.90;;
67456;SDS011;54319;52.038;4.640;2022-12-18T06:36:03;31.80;;;16.08;;
67456;SDS011;54319;52.038;4.640;2022-12-18T06:38:33;31.45;;;13.68;;
67456;SDS011;54319;52.038;4.640;2022-12-18T06:41:00;26.50;;;14.23;;
67456;SDS011;54319;52.038;4.640;2022-12-18T06:43:27;25.83;;;15.00;;
67456;SDS011;54319;52.038;4.640;2022-12-18T06:45:57;28.40;;;13.82;;
67456;SDS011;54319;52.038;4.640;2022-12-18T06:48:25;27.98;;;15.95;;
67456;SDS011;54319;52.038;4.640;2022-12-18T06:50:54;34.10;;;15.70;;
67456;SDS011;54319;52.038;4.640;2022-12-18T06:53:22;26.02;;;14.80;;
67456;SDS011;54319;52.038;4.640;2022-12-18T06:55:48;26.80;;;13.70;;
67456;SDS011;54319;52.038;4.640;2022-12-18T06:58:16;31.38;;;14.40;;
67456;SDS011;54319;52.038;4.640;2022-12-18T07:00:43;25.08;;;13.95;;
67456;SDS011;54319;52.038;4.640;2022-12-18T07:03:10;25.85;;;14.40;;
67456;SDS011;54319;52.038;4.640;2022-12-18T07:05:39;21.95;;;12.98;;
67456;SDS011;54319;52.038;4.640;2022-12-18T07:08:08;27.27;;;14.35;;
67456;SDS011;54319;52.038;4.640;2022-12-18T07:10:39;22.27;;;13.98;;
67456;SDS011;54319;52.038;4.640;2022-12-18T07:13:08;26.92;;;15.02;;
67456;SDS011;54319;52.038;4.640;2022-12-18T07:15:34;23.73;;;14.10;;
67456;SDS011;54319;52.038;4.640;2022-12-18T07:18:02;25.52;;;14.55;;
67456;SDS011;54319;52.038;4.640;2022-12-18T07:20:29;22.55;;;12.52;;
67456;SDS011;54319;52.038;4.640;2022-12-18T07:22:56;24.75;;;14.80;;
67456;SDS011;54319;52.038;4.640;2022-12-18T07:25:24;24.48;;;12.77;;
67456;SDS011;54319;52.038;4.640;2022-12-18T07:27:51;28.67;;;14.20;;
67456;SDS011;54319;52.038;4.640;2022-12-18T07:30:18;18.65;;;11.93;;
67456;SDS011;54319;52.038;4.640;2022-12-18T07:32:45;21.85;;;13.80;;
67456;SDS011;54319;52.038;4.640;2022-12-18T07:35:11;25.15;;;13.77;;
67456;SDS011;54319;52.038;4.640;2022-12-18T07:37:39;24.27;;;13.90;;
67456;SDS011;54319;52.038;4.640;2022-12-18T07:40:06;26.00;;;12.73;;
67456;SDS011;54319;52.038;4.640;2022-12-18T07:42:35;20.67;;;12.48;;
67456;SDS011;54319;52.038;4.640;2022-12-18T07:45:04;18.30;;;12.05;;
67456;SDS011;54319;52.038;4.640;2022-12-18T07:47:33;24.77;;;13.13;;
67456;SDS011;54319;52.038;4.640;2022-12-18T07:50:01;23.00;;;12.68;;
67456;SDS011;54319;52.038;4.640;2022-12-18T07:52:29;26.25;;;14.45;;
67456;SDS011;54319;52.038;4.640;2022-12-18T07:54:56;17.80;;;11.80;;
67456;SDS011;54319;52.038;4.640;2022-12-18T07:57:23;19.90;;;12.55;;
67456;SDS011;54319;52.038;4.640;2022-12-18T07:59:51;24.00;;;13.32;;
67456;SDS011;54319;52.038;4.640;2022-12-18T08:02:18;23.10;;;11.30;;
67456;SDS011;54319;52.038;4.640;2022-12-18T08:04:44;22.38;;;13.68;;
67456;SDS011;54319;52.038;4.640;2022-12-18T08:07:11;25.77;;;13.57;;
67456;SDS011;54319;52.038;4.640;2022-12-18T08:09:39;25.73;;;13.23;;
67456;SDS011;54319;52.038;4.640;2022-12-18T08:12:06;22.88;;;12.40;;
67456;SDS011;54319;52.038;4.640;2022-12-18T08:14:33;21.50;;;13.27;;
67456;SDS011;54319;52.038;4.640;2022-12-18T08:17:01;20.50;;;13.25;;
67456;SDS011;54319;52.038;4.640;2022-12-18T08:19:28;21.25;;;13.38;;
67456;SDS011;54319;52.038;4.640;2022-12-18T08:21:55;21.40;;;13.45;;
67456;SDS011;54319;52.038;4.640;2022-12-18T08:24:22;24.48;;;13.77;;
67456;SDS011;54319;52.038;4.640;2022-12-18T08:26:49;23.75;;;13.73;;
67456;SDS011;54319;52.038;4.640;2022-12-18T08:29:15;21.42;;;13.23;;
67456;SDS011;54319;52.038;4.640;2022-12-18T08:31:42;19.90;;;12.83;;
67456;SDS011;54319;52.038;4.640;2022-12-18T08:34:11;19.90;;;12.35;;
67456;SDS011;54319;52.038;4.640;2022-12-18T08:36:39;18.63;;;12.55;;
67456;SDS011;54319;52.038;4.640;2022-12-18T08:39:06;17.17;;;12.38;;
67456;SDS011;54319;52.038;4.640;2022-12-18T08:41:33;23.77;;;13.18;;
67456;SDS011;54319;52.038;4.640;2022-12-18T08:44:00;21.92;;;12.45;;
67456;SDS011;54319;52.038;4.640;2022-12-18T08:46:45;21.90;;;12.38;;
67456;SDS011;54319;52.038;4.640;2022-12-18T08:49:13;15.32;;;11.27;;
67456;SDS011;54319;52.038;4.640;2022-12-18T08:51:40;19.15;;;12.95;;
67456;SDS011;54319;52.038;4.640;2022-12-18T08:54:07;19.92;;;12.60;;
67456;SDS011;54319;52.038;4.640;2022-12-18T08:56:37;14.05;;;10.52;;
67456;SDS011;54319;52.038;4.640;2022-12-18T08:59:03;20.30;;;12.77;;
67456;SDS011;54319;52.038;4.640;2022-12-18T09:01:31;17.02;;;11.60;;
67456;SDS011;54319;52.038;4.640;2022-12-18T09:03:58;20.15;;;12.35;;
67456;SDS011;54319;52.038;4.640;2022-12-18T09:06:26;18.37;;;12.33;;
67456;SDS011;54319;52.038;4.640;2022-12-18T09:08:53;15.60;;;11.40;;
67456;SDS011;54319;52.038;4.640;2022-12-18T09:11:22;18.23;;;11.15;;
67456;SDS011;54319;52.038;4.640;2022-12-18T09:13:50;16.98;;;10.93;;
67456;SDS011;54319;52.038;4.640;2022-12-18T09:16:17;22.85;;;12.15;;
67456;SDS011;54319;52.038;4.640;2022-12-18T09:18:44;17.88;;;10.90;;
67456;SDS011;54319;52.038;4.640;2022-12-18T09:23:41;15.35;;;10.82;;
67456;SDS011;54319;52.038;4.640;2022-12-18T09:26:09;19.30;;;11.77;;
67456;SDS011;54319;52.038;4.640;2022-12-18T09:28:35;20.25;;;11.48;;
67456;SDS011;54319;52.038;4.640;2022-12-18T09:31:03;16.63;;;11.95;;
67456;SDS011;54319;52.038;4.640;2022-12-18T09:33:31;18.83;;;10.73;;
67456;SDS011;54319;52.038;4.640;2022-12-18T09:36:00;18.02;;;11.65;;
67456;SDS011;54319;52.038;4.640;2022-12-18T09:38:28;24.27;;;11.80;;
67456;SDS011;54319;52.038;4.640;2022-12-18T09:40:57;19.50;;;11.70;;
67456;SDS011;54319;52.038;4.640;2022-12-18T09:43:30;17.50;;;10.05;;
67456;SDS011;54319;52.038;4.640;2022-12-18T09:46:04;17.55;;;11.48;;
67456;SDS011;54319;52.038;4.640;2022-12-18T09:48:35;18.60;;;11.30;;
67456;SDS011;54319;52.038;4.640;2022-12-18T09:51:16;18.50;;;11.85;;
67456;SDS011;54319;52.038;4.640;2022-12-18T09:53:50;14.52;;;10.68;;
67456;SDS011;54319;52.038;4.640;2022-12-18T09:56:22;20.95;;;11.38;;
67456;SDS011;54319;52.038;4.640;2022-12-18T09:58:51;19.63;;;12.05;;
67456;SDS011;54319;52.038;4.640;2022-12-18T10:01:24;14.65;;;10.68;;
67456;SDS011;54319;52.038;4.640;2022-12-18T10:03:52;15.30;;;10.68;;
67456;SDS011;54319;52.038;4.640;2022-12-18T10:06:20;22.15;;;12.02;;
67456;SDS011;54319;52.038;4.640;2022-12-18T10:08:54;17.70;;;11.18;;
67456;SDS011;54319;52.038;4.640;2022-12-18T10:11:34;19.70;;;11.13;;
67456;SDS011;54319;52.038;4.640;2022-12-18T10:14:09;20.13;;;11.63;;
67456;SDS011;54319;52.038;4.640;2022-12-18T10:16:47;18.83;;;11.73;;
67456;SDS011;54319;52.038;4.640;2022-12-18T10:19:33;18.65;;;12.07;;
67456;SDS011;54319;52.038;4.640;2022-12-18T10:22:10;15.77;;;11.15;;
67456;SDS011;54319;52.038;4.640;2022-12-18T10:24:45;18.70;;;10.30;;
67456;SDS011;54319;52.038;4.640;2022-12-18T10:27:25;17.52;;;10.98;;
67456;SDS011;54319;52.038;4.640;2022-12-18T10:29:52;17.70;;;10.85;;
67456;SDS011;54319;52.038;4.640;2022-12-18T10:32:22;16.50;;;10.05;;
67456;SDS011;54319;52.038;4.640;2022-12-18T10:34:52;18.77;;;12.00;;
67456;SDS011;54319;52.038;4.640;2022-12-18T10:37:20;20.15;;;11.63;;
67456;SDS011;54319;52.038;4.640;2022-12-18T10:40:06;18.60;;;11.73;;
67456;SDS011;54319;52.038;4.640;2022-12-18T10:42:40;16.92;;;10.82;;
67456;SDS011;54319;52.038;4.640;2022-12-18T10:45:11;22.58;;;10.63;;
67456;SDS011;54319;52.038;4.640;2022-12-18T10:47:43;22.52;;;11.18;;
67456;SDS011;54319;52.038;4.640;2022-12-18T10:50:18;21.25;;;11.65;;
67456;SDS011;54319;52.038;4.640;2022-12-18T10:52:54;23.42;;;11.25;;
67456;SDS011;54319;52.038;4.640;2022-12-18T10:55:23;17.67;;;10.85;;
67456;SDS011;54319;52.038;4.640;2022-12-18T10:57:55;17.35;;;11.13;;
67456;SDS011;54319;52.038;4.640;2022-12-18T11:00:40;17.92;;;10.10;;
67456;SDS011;54319;52.038;4.640;2022-12-18T11:03:10;21.17;;;10.93;;
67456;SDS011;54319;52.038;4.640;2022-12-18T11:06:04;14.52;;;10.27;;
67456;SDS011;54319;52.038;4.640;2022-12-18T11:08:32;19.00;;;11.07;;
67456;SDS011;54319;52.038;4.640;2022-12-18T11:11:00;23.70;;;11.50;;
67456;SDS011;54319;52.038;4.640;2022-12-18T11:13:29;26.30;;;11.13;;
67456;SDS011;54319;52.038;4.640;2022-12-18T11:15:57;21.67;;;11.93;;
67456;SDS011;54319;52.038;4.640;2022-12-18T11:18:26;20.13;;;11.57;;
67456;SDS011;54319;52.038;4.640;2022-12-18T11:20:56;17.63;;;10.73;;
67456;SDS011;54319;52.038;4.640;2022-12-18T11:23:24;17.88;;;10.55;;
67456;SDS011;54319;52.038;4.640;2022-12-18T11:25:54;20.15;;;11.18;;
67456;SDS011;54319;52.038;4.640;2022-12-18T11:28:25;19.92;;;10.23;;
67456;SDS011;54319;52.038;4.640;2022-12-18T11:31:16;20.77;;;11.88;;
67456;SDS011;54319;52.038;4.640;2022-12-18T11:33:46;18.65;;;11.05;;
67456;SDS011;54319;52.038;4.640;2022-12-18T11:36:19;18.45;;;12.20;;
67456;SDS011;54319;52.038;4.640;2022-12-18T11:38:48;20.45;;;11.27;;
67456;SDS011;54319;52.038;4.640;2022-12-18T11:41:20;18.63;;;11.68;;
67456;SDS011;54319;52.038;4.640;2022-12-18T11:44:15;18.63;;;11.02;;
67456;SDS011;54319;52.038;4.640;2022-12-18T11:46:53;19.45;;;10.95;;
67456;SDS011;54319;52.038;4.640;2022-12-18T11:49:27;18.30;;;10.68;;
67456;SDS011;54319;52.038;4.640;2022-12-18T11:52:00;18.38;;;11.68;;
67456;SDS011;54319;52.038;4.640;2022-12-18T11:54:31;19.42;;;11.82;;
67456;SDS011;54319;52.038;4.640;2022-12-18T11:57:00;17.92;;;10.80;;
67456;SDS011;54319;52.038;4.640;2022-12-18T11:59:35;18.38;;;11.20;;
67456;SDS011;54319;52.038;4.640;2022-12-18T12:02:14;19.67;;;11.35;;
67456;SDS011;54319;52.038;4.640;2022-12-18T12:04:57;21.48;;;11.57;;
67456;SDS011;54319;52.038;4.640;2022-12-18T12:07:38;16.25;;;10.18;;
67456;SDS011;54319;52.038;4.640;2022-12-18T12:10:18;22.08;;;11.65;;
67456;SDS011;54319;52.038;4.640;2022-12-18T12:13:00;16.92;;;10.68;;
67456;SDS011;54319;52.038;4.640;2022-12-18T12:15:45;16.85;;;10.35;;
67456;SDS011;54319;52.038;4.640;2022-12-18T12:18:25;22.92;;;11.63;;
67456;SDS011;54319;52.038;4.640;2022-12-18T12:20:59;16.73;;;10.63;;
67456;SDS011;54319;52.038;4.640;2022-12-18T12:23:35;19.48;;;11.30;;
67456;SDS011;54319;52.038;4.640;2022-12-18T12:26:10;16.58;;;9.40;;
67456;SDS011;54319;52.038;4.640;2022-12-18T12:28:49;19.70;;;10.88;;
67456;SDS011;54319;52.038;4.640;2022-12-18T12:31:33;18.83;;;10.35;;
67456;SDS011;54319;52.038;4.640;2022-12-18T12:34:16;19.40;;;10.15;;
67456;SDS011;54319;52.038;4.640;2022-12-18T12:36:51;18.17;;;10.90;;
67456;SDS011;54319;52.038;4.640;2022-12-18T12:39:29;15.15;;;10.05;;
67456;SDS011;54319;52.038;4.640;2022-12-18T12:42:00;18.30;;;10.90;;
67456;SDS011;54319;52.038;4.640;2022-12-18T12:44:46;17.52;;;10.15;;
67456;SDS011;54319;52.038;4.640;2022-12-18T12:47:20;17.75;;;10.82;;
67456;SDS011;54319;52.038;4.640;2022-12-18T12:49:52;18.38;;;10.88;;
67456;SDS011;54319;52.038;4.640;2022-12-18T12:52:24;16.92;;;10.60;;
67456;SDS011;54319;52.038;4.640;2022-12-18T12:54:56;22.27;;;11.40;;
67456;SDS011;54319;52.038;4.640;2022-12-18T12:57:27;18.15;;;10.23;;
67456;SDS011;54319;52.038;4.640;2022-12-18T13:00:01;20.20;;;10.52;;
67456;SDS011;54319;52.038;4.640;2022-12-18T13:02:35;18.35;;;12.07;;
67456;SDS011;54319;52.038;4.640;2022-12-18T13:05:11;18.05;;;9.88;;
67456;SDS011;54319;52.038;4.640;2022-12-18T13:10:23;13.82;;;9.50;;
67456;SDS011;54319;52.038;4.640;2022-12-18T13:12:57;17.95;;;10.45;;
67456;SDS011;54319;52.038;4.640;2022-12-18T13:15:32;18.15;;;10.30;;
67456;SDS011;54319;52.038;4.640;2022-12-18T13:18:09;21.20;;;10.88;;
67456;SDS011;54319;52.038;4.640;2022-12-18T13:20:40;22.60;;;11.68;;
67456;SDS011;54319;52.038;4.640;2022-12-18T13:23:23;19.17;;;10.63;;
67456;SDS011;54319;52.038;4.640;2022-12-18T13:25:54;16.98;;;10.63;;
67456;SDS011;54319;52.038;4.640;2022-12-18T13:28:22;21.25;;;10.50;;
67456;SDS011;54319;52.038;4.640;2022-12-18T13:31:11;19.73;;;11.10;;
67456;SDS011;54319;52.038;4.640;2022-12-18T13:33:45;18.85;;;10.73;;
67456;SDS011;54319;52.038;4.640;2022-12-18T13:36:14;20.80;;;11.40;;
67456;SDS011;54319;52.038;4.640;2022-12-18T13:41:50;15.98;;;10.82;;
67456;SDS011;54319;52.038;4.640;2022-12-18T13:44:24;18.40;;;11.02;;
67456;SDS011;54319;52.038;4.640;2022-12-18T13:46:59;19.38;;;11.30;;
67456;SDS011;54319;52.038;4.640;2022-12-18T13:49:31;18.38;;;10.80;;
67456;SDS011;54319;52.038;4.640;2022-12-18T13:52:14;18.08;;;9.93;;
67456;SDS011;54319;52.038;4.640;2022-12-18T13:54:45;15.88;;;10.27;;
67456;SDS011;54319;52.038;4.640;2022-12-18T13:57:25;16.80;;;10.10;;
67456;SDS011;54319;52.038;4.640;2022-12-18T13:59:53;22.00;;;11.88;;
67456;SDS011;54319;52.038;4.640;2022-12-18T14:02:21;22.05;;;11.23;;
67456;SDS011;54319;52.038;4.640;2022-12-18T14:04:51;17.60;;;10.93;;
67456;SDS011;54319;52.038;4.640;2022-12-18T14:07:19;20.63;;;11.98;;
67456;SDS011;54319;52.038;4.640;2022-12-18T14:09:48;18.88;;;11.18;;
67456;SDS011;54319;52.038;4.640;2022-12-18T14:12:19;17.50;;;11.13;;
67456;SDS011;54319;52.038;4.640;2022-12-18T14:15:06;26.38;;;11.68;;
67456;SDS011;54319;52.038;4.640;2022-12-18T14:17:47;22.15;;;12.38;;
67456;SDS011;54319;52.038;4.640;2022-12-18T14:20:15;22.65;;;11.75;;
67456;SDS011;54319;52.038;4.640;2022-12-18T14:22:44;21.48;;;11.82;;
67456;SDS011;54319;52.038;4.640;2022-12-18T14:25:17;20.02;;;10.68;;
67456;SDS011;54319;52.038;4.640;2022-12-18T14:27:47;19.85;;;11.65;;
67456;SDS011;54319;52.038;4.640;2022-12-18T14:30:25;16.85;;;10.65;;
67456;SDS011;54319;52.038;4.640;2022-12-18T14:33:03;22.10;;;12.50;;
67456;SDS011;54319;52.038;4.640;2022-12-18T14:40:55;18.92;;;12.02;;
67456;SDS011;54319;52.038;4.640;2022-12-18T14:43:26;19.05;;;11.52;;
67456;SDS011;54319;52.038;4.640;2022-12-18T14:45:57;22.58;;;12.32;;
67456;SDS011;54319;52.038;4.640;2022-12-18T14:48:31;21.25;;;12.55;;
67456;SDS011;54319;52.038;4.640;2022-12-18T14:51:16;19.05;;;11.68;;
67456;SDS011;54319;52.038;4.640;2022-12-18T14:53:45;21.77;;;11.40;;
67456;SDS011;54319;52.038;4.640;2022-12-18T14:56:17;18.80;;;12.15;;
67456;SDS011;54319;52.038;4.640;2022-12-18T14:58:47;23.10;;;12.10;;
67456;SDS011;54319;52.038;4.640;2022-12-18T15:01:20;22.38;;;11.93;;
67456;SDS011;54319;52.038;4.640;2022-12-18T15:03:49;18.58;;;10.50;;
67456;SDS011;54319;52.038;4.640;2022-12-18T15:06:23;17.55;;;11.07;;
67456;SDS011;54319;52.038;4.640;2022-12-18T15:08:52;22.35;;;12.60;;
67456;SDS011;54319;52.038;4.640;2022-12-18T15:13:59;19.08;;;10.82;;
67456;SDS011;54319;52.038;4.640;2022-12-18T15:16:27;15.55;;;10.43;;